.
WxDataArchive / Data Records for 2014-04-23
2014-04-22 April 2014 2014-04-24

Data Records for Wednesday, 23 April 2014

Time	Temp	Chill	HIndex	Humid	Dewpt	 Wind 	HiWind	WindDir	Rain 	Barom
-----	----	-----	------	-----	-----	------	------	-------	-----	-----
00:00	41.5	41.5	41.5	59	28.3	0	2	292	0.00	29.972 
00:05	41.6	41.6	41.6	59	28.3	0	2	292	0.00	29.972 
00:10	41.6	41.6	41.6	58	27.9	0	1	292	0.00	29.972 
00:15	41.5	41.5	41.5	58	27.8	0	2	292	0.00	29.971 
00:20	41.3	41.3	41.3	58	27.7	0	2	292	0.00	29.971 
00:25	41.3	41.3	41.3	57	27.2	1	3	292	0.00	29.971 
00:30	41.5	41.5	41.5	57	27.4	1	3	292	0.00	29.975 
00:35	41.3	41.3	41.3	57	27.2	0	3	292	0.00	29.975 
00:40	41.2	41.2	41.2	57	27.1	0	2	292	0.00	29.975 
00:45	41.1	41.1	41.1	57	27.0	0	2	292	0.00	29.980 
00:50	40.8	40.8	40.8	58	27.2	0	2	292	0.00	29.980 
00:55	40.8	40.8	40.8	58	27.2	0	3	292	0.00	29.980 
01:00	40.6	40.6	40.6	58	27.0	1	4	315	0.00	29.983 
01:05	40.6	40.6	40.6	57	26.6	1	3	315	0.00	29.983 
01:10	40.6	40.6	40.6	58	27.0	1	2	315	0.00	29.983 
01:15	40.6	40.6	40.6	58	27.0	1	3	315	0.00	29.985 
01:20	40.5	40.5	40.5	58	26.9	1	4	315	0.00	29.985 
01:25	40.5	40.5	40.5	58	26.9	1	4	338	0.00	29.985 
01:30	40.5	40.5	40.5	58	26.9	1	4	315	0.00	29.992 
01:35	40.3	40.3	40.3	58	26.7	1	5	270	0.00	29.992 
01:40	40.1	40.1	40.1	59	26.9	1	5	270	0.00	29.992 
01:45	40.1	40.1	40.1	59	26.9	1	3	338	0.00	29.989 
01:50	39.9	39.9	39.9	59	26.7	1	3	315	0.00	29.989 
01:55	39.8	39.8	39.8	59	26.7	1	4	315	0.00	29.989 
02:00	39.6	39.6	39.6	60	26.9	1	5	292	0.00	29.989 
02:05	39.5	39.5	39.5	60	26.8	2	5	270	0.00	29.989 
02:10	39.3	39.3	39.3	60	26.6	1	4	0	0.00	29.989 
02:15	39.2	39.2	39.2	60	26.5	1	6	0	0.00	29.988 
02:20	39.2	39.2	39.2	61	26.9	1	4	0	0.00	29.988 
02:25	39.1	39.1	39.1	61	26.8	1	5	0	0.00	29.988 
02:30	38.9	38.9	38.9	61	26.6	1	4	338	0.00	29.993 
02:35	38.9	38.9	38.9	61	26.6	1	4	270	0.00	29.993 
02:40	38.8	38.8	38.8	61	26.5	1	2	270	0.00	29.993 
02:45	38.8	38.8	38.8	61	26.5	1	3	292	0.00	29.988 
02:50	38.6	38.6	38.6	62	26.7	1	2	292	0.00	29.988 
02:55	38.6	38.6	38.6	62	26.7	1	4	292	0.00	29.988 
03:00	38.5	38.5	38.5	62	26.6	0	3	248	0.00	29.990 
03:05	38.3	38.3	38.3	62	26.4	0	2	248	0.00	29.990 
03:10	38.2	38.2	38.2	63	26.7	1	3	248	0.00	29.990 
03:15	38.0	38.0	38.0	63	26.5	0	2	248	0.00	29.994 
03:20	37.9	37.9	37.9	64	26.8	0	2	248	0.00	29.994 
03:25	37.6	37.6	37.6	64	26.5	0	2	315	0.00	29.994 
03:30	37.5	37.5	37.5	64	26.4	0	1	315	0.00	29.996 
03:35	37.3	37.3	37.3	65	26.6	0	3	315	0.00	29.996 
03:40	37.2	37.2	37.2	65	26.5	0	1	315	0.00	29.996 
03:45	37.0	37.0	37.0	66	26.7	0	2	315	0.00	30.000 
03:50	37.0	37.0	37.0	66	26.7	1	2	315	0.00	30.000 
03:55	36.9	36.9	36.9	66	26.6	0	2	315	0.00	30.000 
04:00	36.9	36.9	36.9	66	26.6	1	3	315	0.00	30.001 
04:05	36.9	36.9	36.9	66	26.6	0	3	315	0.00	30.001 
04:10	36.8	36.8	36.8	66	26.5	0	3	315	0.00	30.001 
04:15	36.6	36.6	36.6	67	26.7	0	3	315	0.00	30.008 
04:20	36.6	36.6	36.6	67	26.7	1	3	315	0.00	30.008 
04:25	36.6	36.6	36.6	67	26.7	1	4	315	0.00	30.008 
04:30	36.6	36.6	36.6	67	26.7	1	5	315	0.00	30.012 
04:35	36.6	36.6	36.6	66	26.3	1	3	315	0.00	30.012 
04:40	36.6	36.6	36.6	66	26.3	1	5	315	0.00	30.012 
04:45	36.5	36.5	36.5	66	26.2	0	3	292	0.00	30.014 
04:50	36.5	36.5	36.5	67	26.6	0	2	292	0.00	30.014 
04:55	36.3	36.3	36.3	67	26.4	0	1	292	0.00	30.014 
05:00	36.0	36.0	36.0	67	26.1	0	1	292	0.00	30.014 
05:05	35.9	35.9	35.9	68	26.4	0	1	292	0.00	30.014 
05:10	35.6	35.6	35.6	68	26.1	0	0	---	0.00	30.014 
05:15	35.5	35.5	35.5	69	26.4	0	1	292	0.00	30.016 
05:20	35.2	35.2	35.2	70	26.4	0	2	292	0.00	30.016 
05:25	35.2	35.2	35.2	70	26.4	0	2	292	0.00	30.016 
05:30	35.2	35.2	35.2	71	26.8	1	3	292	0.00	30.021 
05:35	35.2	35.2	35.2	71	26.8	0	2	292	0.00	30.021 
05:40	35.2	35.2	35.2	71	26.8	1	2	292	0.00	30.021 
05:45	35.2	35.2	35.2	71	26.8	1	3	292	0.00	30.026 
05:50	35.2	35.2	35.2	71	26.8	1	3	292	0.00	30.026 
05:55	35.2	35.2	35.2	71	26.8	1	3	292	0.00	30.026 
06:00	35.0	35.0	35.0	71	26.6	0	2	292	0.00	30.034 
06:05	34.9	34.9	34.9	71	26.5	0	1	292	0.00	30.034 
06:10	34.7	34.7	34.7	72	26.6	0	1	292	0.00	30.034 
06:15	34.6	34.6	34.6	72	26.5	0	3	292	0.00	30.049 
06:20	34.6	34.6	34.6	72	26.5	0	3	292	0.00	30.049 
06:25	34.6	34.6	34.6	72	26.5	0	1	292	0.00	30.049 
06:30	34.6	34.6	34.6	73	26.9	0	3	292	0.00	30.059 
06:35	34.4	34.4	34.4	73	26.7	0	2	292	0.00	30.059 
06:40	34.4	34.4	34.4	73	26.7	0	2	292	0.00	30.059 
06:45	34.4	34.4	34.4	73	26.7	1	3	315	0.00	30.066 
06:50	34.4	34.4	34.4	73	26.7	0	3	315	0.00	30.066 
06:55	34.4	34.4	34.4	73	26.7	1	3	315	0.00	30.066 
07:00	34.3	34.3	34.3	73	26.6	1	6	315	0.00	30.069 
07:05	34.3	34.3	34.3	73	26.6	1	5	315	0.00	30.069 
07:10	34.3	34.3	34.3	73	26.6	1	3	315	0.00	30.069 
07:15	34.4	34.4	34.4	73	26.7	1	6	315	0.00	30.067 
07:20	34.4	34.4	34.4	73	26.7	1	3	338	0.00	30.067 
07:25	34.4	34.4	34.4	74	27.0	1	5	338	0.00	30.067 
07:30	34.6	34.6	34.6	73	26.9	2	5	315	0.00	30.070 
07:35	34.7	34.7	34.7	73	26.9	1	4	338	0.00	30.070 
07:40	34.9	34.9	34.9	73	27.1	1	4	338	0.00	30.070 
07:45	35.2	35.2	35.2	72	27.1	1	4	0	0.00	30.074 
07:50	35.5	35.5	35.5	72	27.4	1	4	338	0.00	30.074 
07:55	35.6	35.6	35.6	71	27.1	2	6	338	0.00	30.074 
08:00	35.9	35.9	35.9	71	27.4	1	3	292	0.00	30.084 
08:05	36.2	36.2	36.2	70	27.4	1	4	292	0.00	30.084 
08:10	36.3	36.3	36.3	69	27.1	2	6	338	0.00	30.084 
08:15	36.6	36.6	36.6	69	27.4	1	3	338	0.00	30.089 
08:20	36.9	36.9	36.9	68	27.3	2	5	338	0.00	30.089 
08:25	36.9	36.9	36.9	68	27.3	2	5	338	0.00	30.089 
08:30	37.2	37.2	37.2	68	27.6	1	4	338	0.00	30.098 
08:35	37.5	37.5	37.5	67	27.6	1	6	338	0.00	30.098 
08:40	37.9	37.9	37.9	67	27.9	1	4	338	0.00	30.098 
08:45	38.0	38.0	38.0	66	27.7	1	6	0	0.00	30.094 
08:50	38.2	38.2	38.2	67	28.2	1	4	22	0.00	30.094 
08:55	38.6	38.6	38.6	66	28.2	1	5	338	0.00	30.094 
09:00	38.8	38.8	38.8	65	28.1	1	5	338	0.00	30.099 
09:05	38.9	38.9	38.9	65	28.2	1	5	338	0.00	30.099 
09:10	39.2	39.2	39.2	65	28.4	1	7	338	0.00	30.099 
09:15	39.3	39.3	39.3	65	28.5	1	5	338	0.00	30.101 
09:20	39.5	39.5	39.5	64	28.3	2	6	338	0.00	30.101 
09:25	39.8	39.8	39.8	64	28.6	1	9	68	0.00	30.101 
09:30	39.9	39.9	39.9	64	28.7	2	6	338	0.00	30.101 
09:35	39.9	39.9	39.9	63	28.3	1	3	338	0.00	30.101 
09:40	40.2	40.2	40.2	64	29.0	1	3	292	0.00	30.101 
09:45	40.9	40.9	40.9	63	29.3	1	6	90	0.00	30.110 
09:50	41.3	41.3	41.3	60	28.5	1	3	270	0.00	30.110 
09:55	41.9	41.9	41.9	62	29.8	1	4	135	0.00	30.110 
10:00	42.5	42.5	42.5	59	29.2	1	3	68	0.00	30.110 
10:05	42.9	42.9	42.9	61	30.4	1	6	68	0.00	30.110 
10:10	43.1	43.1	43.1	58	29.3	1	4	68	0.00	30.110 
10:15	43.2	43.2	43.2	60	30.3	1	4	90	0.00	30.109 
10:20	43.5	43.5	43.5	58	29.7	1	4	338	0.00	30.109 
10:25	43.8	43.8	43.8	59	30.4	0	3	248	0.00	30.109 
10:30	43.9	43.9	43.9	57	29.7	1	3	248	0.00	30.112 
10:35	44.1	44.1	44.1	57	29.9	1	4	248	0.00	30.112 
10:40	44.3	44.3	44.3	57	30.0	1	5	0	0.00	30.112 
10:45	44.5	44.5	44.5	56	29.8	1	5	315	0.00	30.114 
10:50	44.5	44.5	44.5	56	29.8	1	3	338	0.00	30.114 
10:55	44.2	44.2	44.2	56	29.5	2	5	338	0.00	30.114 
11:00	44.2	44.2	44.2	57	29.9	1	3	338	0.00	30.114 
11:05	44.8	44.8	44.8	59	31.4	1	3	338	0.00	30.114 
11:10	45.1	45.1	45.1	58	31.2	1	4	338	0.00	30.114 
11:15	45.7	45.7	45.7	56	30.9	1	4	338	0.00	30.112 
11:20	46.2	46.2	46.2	55	30.9	1	6	338	0.00	30.112 
11:25	46.4	46.4	46.4	54	30.7	1	4	338	0.00	30.112 
11:30	47.1	47.1	47.1	55	31.8	0	4	90	0.00	30.114 
11:35	47.4	47.4	47.4	53	31.1	1	4	338	0.00	30.114 
11:40	47.6	47.6	47.6	53	31.3	0	3	338	0.00	30.114 
11:45	48.3	48.3	48.3	54	32.4	1	10	68	0.00	30.109 
11:50	48.5	48.5	48.5	52	31.7	1	5	0	0.00	30.109 
11:55	48.8	48.8	48.8	50	31.0	1	6	112	0.00	30.109 
12:00	48.8	48.8	48.8	49	30.5	1	4	22	0.00	30.109 
12:05	49.1	49.1	49.1	50	31.3	2	7	0	0.00	30.109 
12:10	49.2	49.2	49.2	48	30.4	1	4	0	0.00	30.109 
12:15	49.6	49.6	49.6	49	31.2	1	4	0	0.00	30.108 
12:20	49.4	49.4	49.4	49	31.0	1	4	315	0.00	30.108 
12:25	49.9	49.9	49.9	52	33.0	1	4	292	0.00	30.108 
12:30	50.2	50.2	50.2	49	31.8	2	6	338	0.00	30.103 
12:35	50.8	50.8	50.8	49	32.3	1	6	90	0.00	30.103 
12:40	50.8	50.8	50.8	46	30.8	3	6	112	0.00	30.103 
12:45	50.8	50.8	50.8	48	31.8	1	5	0	0.00	30.093 
12:50	51.3	51.3	51.3	47	31.8	1	4	22	0.00	30.093 
12:55	51.7	51.7	51.7	44	30.5	1	4	45	0.00	30.093 
13:00	51.7	51.7	51.7	46	31.6	2	8	112	0.00	30.092 
13:05	51.9	51.9	51.9	47	32.3	1	4	90	0.00	30.092 
13:10	52.2	52.2	52.2	46	32.1	1	4	90	0.00	30.092 
13:15	52.3	52.3	52.3	45	31.6	0	2	90	0.00	30.094 
13:20	52.6	52.6	52.6	43	30.7	1	5	90	0.00	30.094 
13:25	52.8	52.8	52.8	43	30.9	1	4	22	0.00	30.094 
13:30	52.6	52.6	52.6	44	31.3	1	5	90	0.00	30.092 
13:35	52.9	52.9	52.9	45	32.1	1	5	68	0.00	30.092 
13:40	53.3	53.3	53.3	45	32.5	1	5	68	0.00	30.092 
13:45	53.5	53.5	53.5	43	31.6	1	4	45	0.00	30.088 
13:50	53.8	53.8	53.8	39	29.4	0	4	135	0.00	30.088 
13:55	53.8	53.8	53.8	43	31.8	2	5	135	0.00	30.088 
14:00	53.9	53.9	53.9	44	32.5	1	4	292	0.00	30.087 
14:05	53.9	53.9	53.9	40	30.1	1	3	338	0.00	30.087 
14:10	54.2	54.2	54.2	45	33.3	1	7	90	0.00	30.087 
14:15	54.5	54.5	54.5	43	32.5	2	5	90	0.00	30.084 
14:20	55.1	55.1	55.1	39	30.6	1	6	112	0.00	30.084 
14:25	55.3	55.3	55.3	38	30.1	1	4	315	0.00	30.084 
14:30	55.4	55.4	55.4	42	32.7	1	6	315	0.00	30.090 
14:35	55.3	55.3	55.3	40	31.4	2	4	112	0.00	30.090 
14:40	55.1	55.1	55.1	38	30.0	2	6	112	0.00	30.090 
14:45	55.1	55.1	55.1	39	30.6	2	5	112	0.00	30.091 
14:50	55.3	55.3	55.3	36	28.8	1	4	68	0.00	30.091 
14:55	55.6	55.6	55.6	35	28.4	1	5	68	0.00	30.091 
15:00	55.7	55.7	55.7	36	29.2	1	5	315	0.00	30.089 
15:05	56.2	56.2	56.2	36	29.6	1	3	90	0.00	30.089 
15:10	56.6	56.6	56.6	35	29.3	1	4	22	0.00	30.089 
15:15	56.9	56.9	56.9	35	29.5	1	5	112	0.00	30.090 
15:20	56.9	56.9	56.9	36	30.2	1	4	112	0.00	30.090 
15:25	56.3	56.3	56.3	33	27.6	2	5	270	0.00	30.090 
15:30	56.6	56.6	56.6	37	30.6	1	4	292	0.00	30.085 
15:35	57.0	57.0	57.0	37	31.0	0	2	292	0.00	30.085 
15:40	57.3	57.3	57.3	32	27.7	2	7	292	0.00	30.085 
15:45	57.5	57.5	57.5	33	28.6	2	6	112	0.00	30.081 
15:50	57.5	57.5	57.5	31	27.1	2	5	112	0.00	30.081 
15:55	57.8	57.8	57.8	32	28.1	1	3	112	0.00	30.081 
16:00	58.1	58.1	58.1	31	27.6	0	3	315	0.00	30.075 
16:05	58.0	58.0	58.0	32	28.3	1	4	270	0.00	30.075 
16:10	58.3	58.3	58.3	33	29.3	1	3	225	0.00	30.075 
16:15	58.1	58.1	58.1	34	29.9	1	4	225	0.00	30.072 
16:20	58.0	58.0	58.0	32	28.3	1	5	270	0.00	30.072 
16:25	58.3	58.3	58.3	31	27.8	1	3	315	0.00	30.072 
16:30	58.3	58.3	58.3	30	27.0	1	3	0	0.00	30.072 
16:35	58.4	58.4	58.4	33	29.4	1	5	90	0.00	30.072 
16:40	58.4	58.4	58.4	31	27.9	2	6	90	0.00	30.072 
16:45	58.3	58.3	58.3	31	27.8	1	5	90	0.00	30.069 
16:50	58.1	58.1	58.1	29	26.0	2	5	315	0.00	30.069 
16:55	58.1	58.1	58.1	31	27.6	1	4	315	0.00	30.069 
17:00	58.3	58.3	58.3	29	26.2	1	4	112	0.00	30.064 
17:05	58.6	58.6	58.6	31	28.1	1	4	68	0.00	30.064 
17:10	58.7	58.7	58.7	31	28.1	1	3	68	0.00	30.064 
17:15	58.9	58.9	58.9	28	25.9	1	4	338	0.00	30.062 
17:20	59.0	59.0	59.0	28	25.9	0	2	338	0.00	30.062 
17:25	58.9	58.9	58.9	28	25.9	0	3	338	0.00	30.062 
17:30	58.9	58.9	58.9	28	25.9	1	4	45	0.00	30.060 
17:35	59.0	59.0	59.0	28	25.9	1	5	112	0.00	30.060 
17:40	59.0	59.0	59.0	30	27.6	1	4	112	0.00	30.060 
17:45	58.9	58.9	58.9	28	25.9	0	3	112	0.00	30.059 
17:50	58.9	58.9	58.9	27	25.0	1	4	0	0.00	30.059 
17:55	58.7	58.7	58.7	27	24.8	1	4	112	0.00	30.059 
18:00	58.4	58.4	58.4	28	25.4	2	7	112	0.00	30.058 
18:05	58.1	58.1	58.1	27	24.3	1	3	22	0.00	30.058 
18:10	58.0	58.0	58.0	30	26.7	1	4	112	0.00	30.058 
18:15	58.0	58.0	58.0	28	25.1	1	5	112	0.00	30.057 
18:20	58.0	58.0	58.0	28	25.1	1	3	22	0.00	30.057 
18:25	58.0	58.0	58.0	28	25.1	0	3	22	0.00	30.057 
18:30	57.8	57.8	57.8	28	24.9	1	5	270	0.00	30.062 
18:35	57.6	57.6	57.6	28	24.7	1	4	90	0.00	30.062 
18:40	57.6	57.6	57.6	30	26.4	1	3	68	0.00	30.062 
18:45	57.5	57.5	57.5	28	24.7	2	5	68	0.00	30.060 
18:50	57.3	57.3	57.3	28	24.5	1	4	68	0.00	30.060 
18:55	57.5	57.5	57.5	27	23.8	0	1	68	0.00	30.060 
19:00	57.5	57.5	57.5	30	26.3	0	2	68	0.00	30.062 
19:05	57.3	57.3	57.3	27	23.6	1	4	68	0.00	30.062 
19:10	57.2	57.2	57.2	27	23.5	0	4	68	0.00	30.062 
19:15	56.9	56.9	56.9	28	24.1	1	4	68	0.00	30.064 
19:20	56.6	56.6	56.6	28	23.9	0	3	68	0.00	30.064 
19:25	56.5	56.5	56.5	27	22.9	0	2	68	0.00	30.064 
19:30	56.2	56.2	56.2	27	22.7	0	1	68	0.00	30.068 
19:35	56.0	56.0	56.0	28	23.4	0	0	---	0.00	30.068 
19:40	56.0	56.0	56.0	29	24.2	0	2	68	0.00	30.068 
19:45	55.7	55.7	55.7	28	23.1	0	1	68	0.00	30.070 
19:50	55.6	55.6	55.6	29	23.9	0	0	---	0.00	30.070 
19:55	55.3	55.3	55.3	29	23.6	0	1	68	0.00	30.070 
20:00	55.1	55.1	55.1	31	25.0	0	1	68	0.00	30.075 
20:05	54.8	54.8	54.8	30	24.0	0	1	68	0.00	30.075 
20:10	54.5	54.5	54.5	31	24.5	0	2	68	0.00	30.075 
20:15	54.4	54.4	54.4	32	25.2	0	1	68	0.00	30.072 
20:20	54.1	54.1	54.1	32	24.9	0	0	---	0.00	30.072 
20:25	53.8	53.8	53.8	32	24.6	0	0	---	0.00	30.072 
20:30	53.6	53.6	53.6	33	25.2	0	0	---	0.00	30.075 
20:35	53.3	53.3	53.3	34	25.7	0	0	---	0.00	30.075 
20:40	53.1	53.1	53.1	34	25.5	0	0	---	0.00	30.075 
20:45	52.8	52.8	52.8	35	25.9	0	0	---	0.00	30.076 
20:50	52.5	52.5	52.5	35	25.6	0	0	---	0.00	30.076 
20:55	52.3	52.3	52.3	35	25.5	0	0	---	0.00	30.076 
21:00	52.2	52.2	52.2	35	25.4	0	0	---	0.00	30.081 
21:05	52.0	52.0	52.0	36	25.9	0	0	---	0.00	30.081 
21:10	51.9	51.9	51.9	35	25.1	0	0	---	0.00	30.081 
21:15	51.7	51.7	51.7	35	24.9	0	0	---	0.00	30.082 
21:20	51.6	51.6	51.6	35	24.9	0	0	---	0.00	30.082 
21:25	51.4	51.4	51.4	36	25.4	0	0	---	0.00	30.082 
21:30	51.4	51.4	51.4	36	25.4	0	0	---	0.00	30.084 
21:35	51.4	51.4	51.4	36	25.4	0	0	---	0.00	30.084 
21:40	51.4	51.4	51.4	36	25.4	0	0	---	0.00	30.084 
21:45	51.4	51.4	51.4	36	25.4	0	0	---	0.00	30.091 
21:50	51.4	51.4	51.4	36	25.4	0	0	---	0.00	30.091 
21:55	51.3	51.3	51.3	36	25.3	0	0	---	0.00	30.091 
22:00	51.1	51.1	51.1	37	25.7	0	0	---	0.00	30.092 
22:05	51.0	51.0	51.0	38	26.3	0	0	---	0.00	30.092 
22:10	50.7	50.7	50.7	38	26.0	0	0	---	0.00	30.092 
22:15	50.4	50.4	50.4	39	26.4	0	0	---	0.00	30.090 
22:20	50.4	50.4	50.4	39	26.4	0	0	---	0.00	30.090 
22:25	50.2	50.2	50.2	39	26.2	0	0	---	0.00	30.090 
22:30	50.2	50.2	50.2	40	26.8	0	0	---	0.00	30.089 
22:35	50.2	50.2	50.2	40	26.8	0	0	---	0.00	30.089 
22:40	50.1	50.1	50.1	41	27.3	0	0	---	0.00	30.089 
22:45	49.9	49.9	49.9	40	26.6	0	0	---	0.00	30.091 
22:50	49.8	49.8	49.8	39	25.9	0	0	---	0.00	30.091 
22:55	49.8	49.8	49.8	39	25.9	0	0	---	0.00	30.091 
23:00	49.6	49.6	49.6	40	26.3	0	1	68	0.00	30.092 
23:05	49.5	49.5	49.5	40	26.2	0	0	---	0.00	30.092 
23:10	49.4	49.4	49.4	40	26.1	0	0	---	0.00	30.092 
23:15	49.1	49.1	49.1	39	25.2	0	0	---	0.00	30.087 
23:20	48.9	48.9	48.9	40	25.7	0	0	---	0.00	30.087 
23:25	48.6	48.6	48.6	42	26.6	0	0	---	0.00	30.087 
23:30	48.3	48.3	48.3	42	26.3	0	0	---	0.00	30.088 
23:35	48.0	48.0	48.0	43	26.6	0	0	---	0.00	30.088 
23:40	47.9	47.9	47.9	46	28.1	0	0	---	0.00	30.088 
23:45	47.9	47.9	47.9	46	28.1	0	0	---	0.00	30.079 
23:50	47.9	47.9	47.9	46	28.1	0	0	---	0.00	30.079 
23:55	47.7	47.7	47.7	46	27.9	0	0	---	0.00	30.079 

CoCoRaHS
IN-AL-39
A2 Web Hosting
Creative Commons License
GoDaddy
search engine by freefind advanced

loaded 2018-11-19 10:21:54 • last modified 2010-11-18 10:43:29
Privacy PolicyDisclaimer
• wx.awcolley.com is powered by PmWiki v.2002016 •
• all content (unless otherwise noted) © 2018 A W Colley